AJA weather

Ajaccio-Napoléon Bonaparte Airport
Ajaccio/Napoléon Bonaparte, Corsica, France

Public forecast

Using degrees Celsius for public forecast. Weather courtesy of forecast.io.

Current aviation weather report (METAR) for Ajaccio-Napoléon Bonaparte Airport

Retrieved 2019/12/13 04:30 UTC (21 minutes ago):

LFKJ 130430Z AUTO VRB03KT 9999 FEW019/// SCT026/// BKN035/// ///CB 10/09 Q0997

Aviation forecast (TAF) for Ajaccio-Napoléon Bonaparte Airport

Retrieved 2019-12-13 03:22 UTC (1 hour ago):

TAF LFKJ 130200Z 1303/1403 28012KT 6000 -RA SCT025 BKN040 TEMPO 1303/1311 27020G30KT 4000 SHRA BKN013 SCT025CB OVC050 FM131200 28025G35KT 9999 FEW030TCU TEMPO 1312/1318 30025G45KT NSC BECMG 1318/1320 30015KT